sensor_id;sensor_type;location;lat;lon;timestamp;P1;durP1;ratioP1;P2;durP2;ratioP2
23614;SDS011;11985;49.404;7.734;2022-08-18T00:01:45;8.00;;;5.47;;
23614;SDS011;11985;49.404;7.734;2022-08-18T00:03:49;7.72;;;4.68;;
23614;SDS011;11985;49.404;7.734;2022-08-18T00:05:51;5.75;;;4.90;;
23614;SDS011;11985;49.404;7.734;2022-08-18T00:07:53;7.10;;;5.00;;
23614;SDS011;11985;49.404;7.734;2022-08-18T00:09:54;6.70;;;5.15;;
23614;SDS011;11985;49.404;7.734;2022-08-18T00:11:59;7.13;;;4.82;;
23614;SDS011;11985;49.404;7.734;2022-08-18T00:14:02;5.72;;;5.15;;
23614;SDS011;11985;49.404;7.734;2022-08-18T00:16:04;6.38;;;5.30;;
23614;SDS011;11985;49.404;7.734;2022-08-18T00:18:07;6.82;;;4.65;;
23614;SDS011;11985;49.404;7.734;2022-08-18T00:20:11;9.13;;;5.18;;
23614;SDS011;11985;49.404;7.734;2022-08-18T00:22:15;5.60;;;5.00;;
23614;SDS011;11985;49.404;7.734;2022-08-18T00:24:18;6.60;;;5.00;;
23614;SDS011;11985;49.404;7.734;2022-08-18T00:28:22;7.65;;;5.70;;
23614;SDS011;11985;49.404;7.734;2022-08-18T00:32:26;4.90;;;4.40;;
23614;SDS011;11985;49.404;7.734;2022-08-18T00:34:31;6.32;;;5.03;;
23614;SDS011;11985;49.404;7.734;2022-08-18T00:36:33;5.70;;;4.97;;
23614;SDS011;11985;49.404;7.734;2022-08-18T00:38:34;6.13;;;4.93;;
23614;SDS011;11985;49.404;7.734;2022-08-18T00:40:38;5.80;;;5.20;;
23614;SDS011;11985;49.404;7.734;2022-08-18T00:42:43;6.40;;;5.10;;
23614;SDS011;11985;49.404;7.734;2022-08-18T00:44:47;6.50;;;4.93;;
23614;SDS011;11985;49.404;7.734;2022-08-18T00:48:50;6.28;;;5.00;;
23614;SDS011;11985;49.404;7.734;2022-08-18T00:50:55;6.72;;;4.78;;
23614;SDS011;11985;49.404;7.734;2022-08-18T00:52:58;6.03;;;4.60;;
23614;SDS011;11985;49.404;7.734;2022-08-18T00:55:05;7.50;;;5.30;;
23614;SDS011;11985;49.404;7.734;2022-08-18T00:57:08;5.15;;;4.45;;
23614;SDS011;11985;49.404;7.734;2022-08-18T00:59:10;5.88;;;4.70;;
23614;SDS011;11985;49.404;7.734;2022-08-18T01:01:18;8.55;;;4.97;;
23614;SDS011;11985;49.404;7.734;2022-08-18T01:03:23;5.95;;;4.95;;
23614;SDS011;11985;49.404;7.734;2022-08-18T01:05:26;5.53;;;4.93;;
23614;SDS011;11985;49.404;7.734;2022-08-18T01:07:34;6.65;;;4.85;;
23614;SDS011;11985;49.404;7.734;2022-08-18T01:09:43;5.50;;;4.80;;
23614;SDS011;11985;49.404;7.734;2022-08-18T01:13:46;7.00;;;5.32;;
23614;SDS011;11985;49.404;7.734;2022-08-18T01:15:48;5.72;;;5.15;;
23614;SDS011;11985;49.404;7.734;2022-08-18T01:17:50;5.75;;;5.13;;
23614;SDS011;11985;49.404;7.734;2022-08-18T01:20:09;7.53;;;5.45;;
23614;SDS011;11985;49.404;7.734;2022-08-18T01:22:32;6.25;;;5.65;;
23614;SDS011;11985;49.404;7.734;2022-08-18T01:24:42;8.65;;;5.32;;
23614;SDS011;11985;49.404;7.734;2022-08-18T01:29:17;8.93;;;5.40;;
23614;SDS011;11985;49.404;7.734;2022-08-18T01:31:30;8.13;;;5.60;;
23614;SDS011;11985;49.404;7.734;2022-08-18T01:33:38;6.85;;;5.47;;
23614;SDS011;11985;49.404;7.734;2022-08-18T01:35:43;10.05;;;5.47;;
23614;SDS011;11985;49.404;7.734;2022-08-18T01:37:48;8.93;;;6.47;;
23614;SDS011;11985;49.404;7.734;2022-08-18T01:39:51;7.15;;;5.63;;
23614;SDS011;11985;49.404;7.734;2022-08-18T01:41:53;11.40;;;6.05;;
23614;SDS011;11985;49.404;7.734;2022-08-18T01:43:55;6.88;;;5.63;;
23614;SDS011;11985;49.404;7.734;2022-08-18T01:45:58;10.80;;;6.82;;
23614;SDS011;11985;49.404;7.734;2022-08-18T01:48:00;6.88;;;6.00;;
23614;SDS011;11985;49.404;7.734;2022-08-18T01:50:03;6.97;;;5.70;;
23614;SDS011;11985;49.404;7.734;2022-08-18T01:52:06;9.20;;;6.10;;
23614;SDS011;11985;49.404;7.734;2022-08-18T01:54:09;7.82;;;6.35;;
23614;SDS011;11985;49.404;7.734;2022-08-18T01:56:13;8.82;;;6.15;;
23614;SDS011;11985;49.404;7.734;2022-08-18T01:58:17;8.50;;;6.20;;
23614;SDS011;11985;49.404;7.734;2022-08-18T02:00:25;10.23;;;5.90;;
23614;SDS011;11985;49.404;7.734;2022-08-18T02:02:28;9.18;;;6.28;;
23614;SDS011;11985;49.404;7.734;2022-08-18T02:04:32;8.95;;;5.80;;
23614;SDS011;11985;49.404;7.734;2022-08-18T02:06:36;8.32;;;6.47;;
23614;SDS011;11985;49.404;7.734;2022-08-18T02:08:38;7.95;;;5.97;;
23614;SDS011;11985;49.404;7.734;2022-08-18T02:10:40;8.38;;;5.85;;
23614;SDS011;11985;49.404;7.734;2022-08-18T02:12:43;12.43;;;6.55;;
23614;SDS011;11985;49.404;7.734;2022-08-18T02:14:45;7.38;;;6.13;;
23614;SDS011;11985;49.404;7.734;2022-08-18T02:18:51;8.57;;;6.63;;
23614;SDS011;11985;49.404;7.734;2022-08-18T02:20:53;8.07;;;6.43;;
23614;SDS011;11985;49.404;7.734;2022-08-18T02:22:55;9.07;;;6.30;;
23614;SDS011;11985;49.404;7.734;2022-08-18T02:25:06;10.00;;;6.65;;
23614;SDS011;11985;49.404;7.734;2022-08-18T02:27:09;8.30;;;6.40;;
23614;SDS011;11985;49.404;7.734;2022-08-18T02:29:13;8.05;;;6.05;;
23614;SDS011;11985;49.404;7.734;2022-08-18T02:31:15;10.90;;;6.55;;
23614;SDS011;11985;49.404;7.734;2022-08-18T02:33:19;8.07;;;6.53;;
23614;SDS011;11985;49.404;7.734;2022-08-18T02:35:20;9.15;;;6.68;;
23614;SDS011;11985;49.404;7.734;2022-08-18T02:39:23;6.88;;;6.15;;
23614;SDS011;11985;49.404;7.734;2022-08-18T02:41:25;6.90;;;6.20;;
23614;SDS011;11985;49.404;7.734;2022-08-18T02:43:28;11.82;;;7.20;;
23614;SDS011;11985;49.404;7.734;2022-08-18T02:45:31;8.85;;;6.45;;
23614;SDS011;11985;49.404;7.734;2022-08-18T02:47:33;8.43;;;6.38;;
23614;SDS011;11985;49.404;7.734;2022-08-18T02:51:37;9.82;;;6.43;;
23614;SDS011;11985;49.404;7.734;2022-08-18T02:53:39;9.90;;;6.88;;
23614;SDS011;11985;49.404;7.734;2022-08-18T02:55:42;8.38;;;6.60;;
23614;SDS011;11985;49.404;7.734;2022-08-18T02:59:47;8.50;;;7.10;;
23614;SDS011;11985;49.404;7.734;2022-08-18T03:01:51;10.52;;;6.18;;
23614;SDS011;11985;49.404;7.734;2022-08-18T03:03:55;10.52;;;7.28;;
23614;SDS011;11985;49.404;7.734;2022-08-18T03:05:57;8.18;;;6.95;;
23614;SDS011;11985;49.404;7.734;2022-08-18T03:07:59;8.82;;;6.97;;
23614;SDS011;11985;49.404;7.734;2022-08-18T03:12:02;8.63;;;6.90;;
23614;SDS011;11985;49.404;7.734;2022-08-18T03:14:06;9.30;;;7.10;;
23614;SDS011;11985;49.404;7.734;2022-08-18T03:16:08;10.65;;;7.70;;
23614;SDS011;11985;49.404;7.734;2022-08-18T03:18:11;10.05;;;7.78;;
23614;SDS011;11985;49.404;7.734;2022-08-18T03:20:13;7.88;;;7.07;;
23614;SDS011;11985;49.404;7.734;2022-08-18T03:22:14;11.50;;;7.38;;
23614;SDS011;11985;49.404;7.734;2022-08-18T03:24:16;10.63;;;7.22;;
23614;SDS011;11985;49.404;7.734;2022-08-18T03:26:18;7.43;;;6.65;;
23614;SDS011;11985;49.404;7.734;2022-08-18T03:28:21;10.07;;;6.95;;
23614;SDS011;11985;49.404;7.734;2022-08-18T03:30:23;9.80;;;6.97;;
23614;SDS011;11985;49.404;7.734;2022-08-18T03:34:28;10.65;;;7.30;;
23614;SDS011;11985;49.404;7.734;2022-08-18T03:36:31;8.43;;;6.65;;
23614;SDS011;11985;49.404;7.734;2022-08-18T03:38:34;7.45;;;6.47;;
23614;SDS011;11985;49.404;7.734;2022-08-18T03:42:37;8.57;;;7.03;;
23614;SDS011;11985;49.404;7.734;2022-08-18T03:44:39;8.20;;;6.85;;
23614;SDS011;11985;49.404;7.734;2022-08-18T03:46:41;10.82;;;6.88;;
23614;SDS011;11985;49.404;7.734;2022-08-18T03:48:45;10.35;;;7.30;;
23614;SDS011;11985;49.404;7.734;2022-08-18T03:50:48;9.70;;;6.90;;
23614;SDS011;11985;49.404;7.734;2022-08-18T03:52:50;8.20;;;6.80;;
23614;SDS011;11985;49.404;7.734;2022-08-18T03:54:52;7.50;;;6.82;;
23614;SDS011;11985;49.404;7.734;2022-08-18T03:58:57;8.05;;;7.25;;
23614;SDS011;11985;49.404;7.734;2022-08-18T04:01:00;12.57;;;8.18;;
23614;SDS011;11985;49.404;7.734;2022-08-18T04:03:02;10.13;;;7.57;;
23614;SDS011;11985;49.404;7.734;2022-08-18T04:07:08;8.77;;;7.20;;
23614;SDS011;11985;49.404;7.734;2022-08-18T04:09:13;8.57;;;7.20;;
23614;SDS011;11985;49.404;7.734;2022-08-18T04:11:15;9.40;;;7.38;;
23614;SDS011;11985;49.404;7.734;2022-08-18T04:13:17;10.20;;;7.22;;
23614;SDS011;11985;49.404;7.734;2022-08-18T04:17:20;11.70;;;7.30;;
23614;SDS011;11985;49.404;7.734;2022-08-18T04:19:23;12.75;;;8.40;;
23614;SDS011;11985;49.404;7.734;2022-08-18T04:21:26;10.40;;;8.55;;
23614;SDS011;11985;49.404;7.734;2022-08-18T04:23:29;8.38;;;6.95;;
23614;SDS011;11985;49.404;7.734;2022-08-18T04:25:31;12.75;;;7.47;;
23614;SDS011;11985;49.404;7.734;2022-08-18T04:27:32;8.77;;;7.35;;
23614;SDS011;11985;49.404;7.734;2022-08-18T04:29:35;9.35;;;8.02;;
23614;SDS011;11985;49.404;7.734;2022-08-18T04:31:38;11.65;;;8.10;;
23614;SDS011;11985;49.404;7.734;2022-08-18T04:33:40;12.55;;;8.82;;
23614;SDS011;11985;49.404;7.734;2022-08-18T04:35:42;9.43;;;8.35;;
23614;SDS011;11985;49.404;7.734;2022-08-18T04:37:45;9.55;;;8.52;;
23614;SDS011;11985;49.404;7.734;2022-08-18T04:39:48;10.50;;;7.72;;
23614;SDS011;11985;49.404;7.734;2022-08-18T04:41:50;10.45;;;8.48;;
23614;SDS011;11985;49.404;7.734;2022-08-18T04:43:52;13.23;;;7.93;;
23614;SDS011;11985;49.404;7.734;2022-08-18T04:45:54;11.43;;;7.63;;
23614;SDS011;11985;49.404;7.734;2022-08-18T04:48:00;10.40;;;8.77;;
23614;SDS011;11985;49.404;7.734;2022-08-18T04:50:02;11.32;;;8.80;;
23614;SDS011;11985;49.404;7.734;2022-08-18T04:52:05;9.93;;;8.10;;
23614;SDS011;11985;49.404;7.734;2022-08-18T04:54:25;11.43;;;8.55;;
23614;SDS011;11985;49.404;7.734;2022-08-18T04:56:29;10.55;;;9.15;;
23614;SDS011;11985;49.404;7.734;2022-08-18T04:58:33;10.75;;;8.90;;
23614;SDS011;11985;49.404;7.734;2022-08-18T05:00:35;11.80;;;8.88;;
23614;SDS011;11985;49.404;7.734;2022-08-18T05:02:37;10.32;;;8.45;;
23614;SDS011;11985;49.404;7.734;2022-08-18T05:04:39;10.80;;;9.43;;
23614;SDS011;11985;49.404;7.734;2022-08-18T05:06:46;12.90;;;10.05;;
23614;SDS011;11985;49.404;7.734;2022-08-18T05:08:47;14.02;;;10.55;;
23614;SDS011;11985;49.404;7.734;2022-08-18T05:10:51;13.70;;;10.05;;
23614;SDS011;11985;49.404;7.734;2022-08-18T05:12:55;13.43;;;10.52;;
23614;SDS011;11985;49.404;7.734;2022-08-18T05:14:57;12.55;;;10.15;;
23614;SDS011;11985;49.404;7.734;2022-08-18T05:23:05;10.38;;;8.32;;
23614;SDS011;11985;49.404;7.734;2022-08-18T05:25:08;10.15;;;7.95;;
23614;SDS011;11985;49.404;7.734;2022-08-18T05:27:12;9.90;;;7.60;;
23614;SDS011;11985;49.404;7.734;2022-08-18T05:29:15;10.15;;;8.38;;
23614;SDS011;11985;49.404;7.734;2022-08-18T05:31:18;10.05;;;7.88;;
23614;SDS011;11985;49.404;7.734;2022-08-18T05:33:21;11.02;;;8.07;;
23614;SDS011;11985;49.404;7.734;2022-08-18T05:35:24;8.63;;;7.72;;
23614;SDS011;11985;49.404;7.734;2022-08-18T05:37:33;13.23;;;8.43;;
23614;SDS011;11985;49.404;7.734;2022-08-18T05:39:49;14.40;;;8.23;;
23614;SDS011;11985;49.404;7.734;2022-08-18T05:41:59;9.73;;;8.23;;
23614;SDS011;11985;49.404;7.734;2022-08-18T05:44:06;12.95;;;8.65;;
23614;SDS011;11985;49.404;7.734;2022-08-18T05:46:10;8.95;;;8.00;;
23614;SDS011;11985;49.404;7.734;2022-08-18T05:48:12;9.63;;;7.70;;
23614;SDS011;11985;49.404;7.734;2022-08-18T05:50:15;10.68;;;8.23;;
23614;SDS011;11985;49.404;7.734;2022-08-18T05:52:20;9.57;;;8.23;;
23614;SDS011;11985;49.404;7.734;2022-08-18T05:54:29;11.32;;;9.32;;
23614;SDS011;11985;49.404;7.734;2022-08-18T05:56:57;11.88;;;9.30;;
23614;SDS011;11985;49.404;7.734;2022-08-18T05:59:05;12.18;;;9.20;;
23614;SDS011;11985;49.404;7.734;2022-08-18T06:01:12;10.57;;;9.00;;
23614;SDS011;11985;49.404;7.734;2022-08-18T06:03:18;11.50;;;10.30;;
23614;SDS011;11985;49.404;7.734;2022-08-18T06:05:24;12.52;;;9.73;;
23614;SDS011;11985;49.404;7.734;2022-08-18T06:07:30;11.70;;;9.75;;
23614;SDS011;11985;49.404;7.734;2022-08-18T06:09:46;13.50;;;10.32;;
23614;SDS011;11985;49.404;7.734;2022-08-18T06:11:50;15.35;;;10.65;;
23614;SDS011;11985;49.404;7.734;2022-08-18T06:13:54;17.33;;;11.50;;
23614;SDS011;11985;49.404;7.734;2022-08-18T06:15:58;12.30;;;10.95;;
23614;SDS011;11985;49.404;7.734;2022-08-18T06:20:57;16.13;;;12.63;;
23614;SDS011;11985;49.404;7.734;2022-08-18T06:23:17;16.45;;;13.02;;
23614;SDS011;11985;49.404;7.734;2022-08-18T06:25:29;18.40;;;12.90;;
23614;SDS011;11985;49.404;7.734;2022-08-18T06:27:37;14.35;;;12.25;;
23614;SDS011;11985;49.404;7.734;2022-08-18T06:29:52;14.90;;;12.18;;
23614;SDS011;11985;49.404;7.734;2022-08-18T06:32:06;15.50;;;13.15;;
23614;SDS011;11985;49.404;7.734;2022-08-18T06:34:19;17.33;;;14.35;;
23614;SDS011;11985;49.404;7.734;2022-08-18T06:36:33;16.90;;;14.70;;
23614;SDS011;11985;49.404;7.734;2022-08-18T06:38:42;18.42;;;14.85;;
23614;SDS011;11985;49.404;7.734;2022-08-18T06:40:59;20.25;;;15.63;;
23614;SDS011;11985;49.404;7.734;2022-08-18T06:43:02;23.52;;;16.42;;
23614;SDS011;11985;49.404;7.734;2022-08-18T06:45:07;19.25;;;16.13;;
23614;SDS011;11985;49.404;7.734;2022-08-18T06:47:14;22.17;;;16.42;;
23614;SDS011;11985;49.404;7.734;2022-08-18T06:49:38;18.95;;;16.40;;
23614;SDS011;11985;49.404;7.734;2022-08-18T06:51:45;19.55;;;16.55;;
23614;SDS011;11985;49.404;7.734;2022-08-18T06:55:53;20.05;;;16.33;;
23614;SDS011;11985;49.404;7.734;2022-08-18T06:57:56;20.70;;;17.70;;
23614;SDS011;11985;49.404;7.734;2022-08-18T07:00:01;19.13;;;16.20;;
23614;SDS011;11985;49.404;7.734;2022-08-18T07:02:13;22.42;;;17.05;;
23614;SDS011;11985;49.404;7.734;2022-08-18T07:04:35;23.88;;;16.50;;
23614;SDS011;11985;49.404;7.734;2022-08-18T07:06:41;19.77;;;16.45;;
23614;SDS011;11985;49.404;7.734;2022-08-18T07:08:44;19.40;;;17.20;;
23614;SDS011;11985;49.404;7.734;2022-08-18T07:10:46;20.92;;;17.25;;
23614;SDS011;11985;49.404;7.734;2022-08-18T07:12:50;22.83;;;16.77;;
23614;SDS011;11985;49.404;7.734;2022-08-18T07:17:07;21.67;;;17.05;;
23614;SDS011;11985;49.404;7.734;2022-08-18T07:19:11;20.85;;;17.65;;
23614;SDS011;11985;49.404;7.734;2022-08-18T07:21:24;20.38;;;18.13;;
23614;SDS011;11985;49.404;7.734;2022-08-18T07:23:29;26.88;;;18.27;;
23614;SDS011;11985;49.404;7.734;2022-08-18T07:25:37;22.33;;;18.38;;
23614;SDS011;11985;49.404;7.734;2022-08-18T07:27:43;23.88;;;18.33;;
23614;SDS011;11985;49.404;7.734;2022-08-18T07:29:58;23.67;;;20.05;;
23614;SDS011;11985;49.404;7.734;2022-08-18T07:32:01;24.45;;;20.10;;
23614;SDS011;11985;49.404;7.734;2022-08-18T07:34:08;25.65;;;21.25;;
23614;SDS011;11985;49.404;7.734;2022-08-18T07:36:13;25.25;;;19.42;;
23614;SDS011;11985;49.404;7.734;2022-08-18T07:38:21;27.30;;;21.08;;
23614;SDS011;11985;49.404;7.734;2022-08-18T07:40:28;24.98;;;21.33;;
23614;SDS011;11985;49.404;7.734;2022-08-18T07:42:37;23.50;;;20.20;;
23614;SDS011;11985;49.404;7.734;2022-08-18T07:44:44;23.20;;;20.52;;
23614;SDS011;11985;49.404;7.734;2022-08-18T07:46:54;27.25;;;20.25;;
23614;SDS011;11985;49.404;7.734;2022-08-18T07:49:00;27.00;;;21.08;;
23614;SDS011;11985;49.404;7.734;2022-08-18T07:51:05;26.10;;;20.80;;
23614;SDS011;11985;49.404;7.734;2022-08-18T07:53:19;25.58;;;20.45;;
23614;SDS011;11985;49.404;7.734;2022-08-18T07:55:34;26.85;;;22.17;;
23614;SDS011;11985;49.404;7.734;2022-08-18T07:57:39;26.63;;;23.02;;
23614;SDS011;11985;49.404;7.734;2022-08-18T07:59:46;25.00;;;21.63;;
23614;SDS011;11985;49.404;7.734;2022-08-18T08:01:56;25.92;;;22.30;;
23614;SDS011;11985;49.404;7.734;2022-08-18T08:04:09;55.47;;;24.77;;
23614;SDS011;11985;49.404;7.734;2022-08-18T08:06:15;31.15;;;22.77;;
23614;SDS011;11985;49.404;7.734;2022-08-18T08:08:27;28.58;;;22.38;;
23614;SDS011;11985;49.404;7.734;2022-08-18T08:10:38;26.70;;;21.67;;
23614;SDS011;11985;49.404;7.734;2022-08-18T08:12:45;28.65;;;23.23;;
23614;SDS011;11985;49.404;7.734;2022-08-18T08:14:55;26.33;;;22.15;;
23614;SDS011;11985;49.404;7.734;2022-08-18T08:17:18;26.67;;;22.17;;
23614;SDS011;11985;49.404;7.734;2022-08-18T08:19:44;26.08;;;21.27;;
23614;SDS011;11985;49.404;7.734;2022-08-18T08:21:57;22.88;;;20.30;;
23614;SDS011;11985;49.404;7.734;2022-08-18T08:24:08;29.58;;;22.38;;
23614;SDS011;11985;49.404;7.734;2022-08-18T08:26:18;26.55;;;21.05;;
23614;SDS011;11985;49.404;7.734;2022-08-18T08:28:39;25.33;;;21.98;;
23614;SDS011;11985;49.404;7.734;2022-08-18T08:30:47;25.55;;;21.27;;
23614;SDS011;11985;49.404;7.734;2022-08-18T08:33:01;26.38;;;20.23;;
23614;SDS011;11985;49.404;7.734;2022-08-18T08:35:11;25.10;;;20.65;;
23614;SDS011;11985;49.404;7.734;2022-08-18T08:37:16;25.85;;;21.25;;
23614;SDS011;11985;49.404;7.734;2022-08-18T08:39:23;25.20;;;20.20;;
23614;SDS011;11985;49.404;7.734;2022-08-18T08:41:30;24.63;;;21.23;;
23614;SDS011;11985;49.404;7.734;2022-08-18T08:43:36;30.33;;;22.40;;
23614;SDS011;11985;49.404;7.734;2022-08-18T08:45:43;25.20;;;20.90;;
23614;SDS011;11985;49.404;7.734;2022-08-18T08:47:50;25.15;;;21.73;;
23614;SDS011;11985;49.404;7.734;2022-08-18T08:50:02;25.08;;;20.95;;
23614;SDS011;11985;49.404;7.734;2022-08-18T08:52:08;27.58;;;20.70;;
23614;SDS011;11985;49.404;7.734;2022-08-18T08:54:19;23.83;;;21.23;;
23614;SDS011;11985;49.404;7.734;2022-08-18T08:56:28;25.48;;;20.85;;
23614;SDS011;11985;49.404;7.734;2022-08-18T08:58:34;26.15;;;21.77;;
23614;SDS011;11985;49.404;7.734;2022-08-18T09:00:42;23.55;;;20.23;;
23614;SDS011;11985;49.404;7.734;2022-08-18T09:02:55;23.23;;;19.60;;
23614;SDS011;11985;49.404;7.734;2022-08-18T09:05:07;21.75;;;19.40;;
23614;SDS011;11985;49.404;7.734;2022-08-18T09:07:21;24.58;;;20.02;;
23614;SDS011;11985;49.404;7.734;2022-08-18T09:09:46;24.00;;;20.70;;
23614;SDS011;11985;49.404;7.734;2022-08-18T09:14:23;26.40;;;21.88;;
23614;SDS011;11985;49.404;7.734;2022-08-18T09:16:50;26.13;;;22.58;;
23614;SDS011;11985;49.404;7.734;2022-08-18T09:19:05;26.77;;;21.75;;
23614;SDS011;11985;49.404;7.734;2022-08-18T09:21:21;27.38;;;21.88;;
23614;SDS011;11985;49.404;7.734;2022-08-18T09:23:33;27.70;;;23.08;;
23614;SDS011;11985;49.404;7.734;2022-08-18T09:25:44;32.08;;;22.98;;
23614;SDS011;11985;49.404;7.734;2022-08-18T09:27:54;27.35;;;23.83;;
23614;SDS011;11985;49.404;7.734;2022-08-18T09:30:36;26.83;;;23.52;;
23614;SDS011;11985;49.404;7.734;2022-08-18T09:32:47;26.65;;;22.30;;
23614;SDS011;11985;49.404;7.734;2022-08-18T09:35:17;26.23;;;22.23;;
23614;SDS011;11985;49.404;7.734;2022-08-18T09:37:46;25.05;;;22.38;;
23614;SDS011;11985;49.404;7.734;2022-08-18T09:40:13;23.08;;;20.52;;
23614;SDS011;11985;49.404;7.734;2022-08-18T09:42:36;27.27;;;21.23;;
23614;SDS011;11985;49.404;7.734;2022-08-18T09:50:30;21.20;;;18.63;;
23614;SDS011;11985;49.404;7.734;2022-08-18T09:54:53;22.95;;;18.80;;
23614;SDS011;11985;49.404;7.734;2022-08-18T09:59:31;24.83;;;18.85;;
23614;SDS011;11985;49.404;7.734;2022-08-18T10:02:59;24.92;;;20.00;;
23614;SDS011;11985;49.404;7.734;2022-08-18T10:05:27;24.88;;;20.38;;
23614;SDS011;11985;49.404;7.734;2022-08-18T10:07:50;22.70;;;20.30;;
23614;SDS011;11985;49.404;7.734;2022-08-18T10:12:35;25.63;;;22.55;;
23614;SDS011;11985;49.404;7.734;2022-08-18T10:15:07;25.80;;;21.85;;
23614;SDS011;11985;49.404;7.734;2022-08-18T10:17:21;30.30;;;22.83;;
23614;SDS011;11985;49.404;7.734;2022-08-18T10:19:40;26.13;;;22.38;;
23614;SDS011;11985;49.404;7.734;2022-08-18T10:22:04;24.60;;;21.88;;
23614;SDS011;11985;49.404;7.734;2022-08-18T10:24:18;26.10;;;23.10;;
23614;SDS011;11985;49.404;7.734;2022-08-18T10:29:41;27.17;;;22.77;;
23614;SDS011;11985;49.404;7.734;2022-08-18T10:36:44;27.77;;;23.38;;
23614;SDS011;11985;49.404;7.734;2022-08-18T10:38:48;27.58;;;21.70;;
23614;SDS011;11985;49.404;7.734;2022-08-18T10:40:55;26.83;;;21.88;;
23614;SDS011;11985;49.404;7.734;2022-08-18T10:43:06;27.15;;;22.55;;
23614;SDS011;11985;49.404;7.734;2022-08-18T10:45:11;26.42;;;20.98;;
23614;SDS011;11985;49.404;7.734;2022-08-18T10:47:19;25.65;;;20.48;;
23614;SDS011;11985;49.404;7.734;2022-08-18T10:49:24;23.90;;;19.55;;
23614;SDS011;11985;49.404;7.734;2022-08-18T10:51:31;25.55;;;20.73;;
23614;SDS011;11985;49.404;7.734;2022-08-18T10:53:42;27.98;;;21.35;;
23614;SDS011;11985;49.404;7.734;2022-08-18T10:55:49;26.38;;;20.95;;
23614;SDS011;11985;49.404;7.734;2022-08-18T10:58:04;26.00;;;19.83;;
23614;SDS011;11985;49.404;7.734;2022-08-18T11:00:22;21.27;;;17.25;;
23614;SDS011;11985;49.404;7.734;2022-08-18T11:02:43;22.00;;;19.70;;
23614;SDS011;11985;49.404;7.734;2022-08-18T11:05:03;19.77;;;16.42;;
23614;SDS011;11985;49.404;7.734;2022-08-18T11:07:08;19.73;;;16.40;;
23614;SDS011;11985;49.404;7.734;2022-08-18T11:09:15;18.52;;;15.43;;
23614;SDS011;11985;49.404;7.734;2022-08-18T11:11:24;21.75;;;17.60;;
23614;SDS011;11985;49.404;7.734;2022-08-18T11:13:38;20.15;;;17.08;;
23614;SDS011;11985;49.404;7.734;2022-08-18T11:15:55;18.38;;;16.25;;
23614;SDS011;11985;49.404;7.734;2022-08-18T11:18:06;19.30;;;16.00;;
23614;SDS011;11985;49.404;7.734;2022-08-18T11:20:17;21.27;;;17.60;;
23614;SDS011;11985;49.404;7.734;2022-08-18T11:22:24;22.75;;;16.40;;
23614;SDS011;11985;49.404;7.734;2022-08-18T11:24:28;18.83;;;15.35;;
23614;SDS011;11985;49.404;7.734;2022-08-18T11:26:35;20.40;;;17.10;;
23614;SDS011;11985;49.404;7.734;2022-08-18T11:28:39;22.30;;;16.63;;
23614;SDS011;11985;49.404;7.734;2022-08-18T11:30:41;23.55;;;18.73;;
23614;SDS011;11985;49.404;7.734;2022-08-18T11:32:45;21.20;;;18.85;;
23614;SDS011;11985;49.404;7.734;2022-08-18T11:34:50;23.48;;;20.67;;
23614;SDS011;11985;49.404;7.734;2022-08-18T11:36:57;22.80;;;20.33;;
23614;SDS011;11985;49.404;7.734;2022-08-18T11:39:01;22.27;;;19.98;;
23614;SDS011;11985;49.404;7.734;2022-08-18T11:41:09;22.75;;;19.60;;
23614;SDS011;11985;49.404;7.734;2022-08-18T11:43:18;25.42;;;20.70;;
23614;SDS011;11985;49.404;7.734;2022-08-18T11:45:28;22.92;;;20.50;;
23614;SDS011;11985;49.404;7.734;2022-08-18T11:47:35;26.15;;;20.67;;
23614;SDS011;11985;49.404;7.734;2022-08-18T11:49:43;23.00;;;20.33;;
23614;SDS011;11985;49.404;7.734;2022-08-18T11:51:54;25.30;;;20.05;;
23614;SDS011;11985;49.404;7.734;2022-08-18T11:54:00;25.30;;;21.33;;
23614;SDS011;11985;49.404;7.734;2022-08-18T11:56:19;25.02;;;22.38;;
23614;SDS011;11985;49.404;7.734;2022-08-18T11:58:36;27.33;;;21.33;;
23614;SDS011;11985;49.404;7.734;2022-08-18T12:00:52;23.63;;;20.38;;
23614;SDS011;11985;49.404;7.734;2022-08-18T12:02:59;26.15;;;21.00;;
23614;SDS011;11985;49.404;7.734;2022-08-18T12:05:02;25.92;;;21.38;;
23614;SDS011;11985;49.404;7.734;2022-08-18T12:07:05;24.77;;;22.23;;
23614;SDS011;11985;49.404;7.734;2022-08-18T12:09:13;29.77;;;22.00;;
23614;SDS011;11985;49.404;7.734;2022-08-18T12:11:17;25.27;;;22.50;;
23614;SDS011;11985;49.404;7.734;2022-08-18T12:13:21;26.80;;;23.67;;
23614;SDS011;11985;49.404;7.734;2022-08-18T12:15:25;27.35;;;22.77;;
23614;SDS011;11985;49.404;7.734;2022-08-18T12:17:31;27.90;;;23.15;;
23614;SDS011;11985;49.404;7.734;2022-08-18T12:19:33;29.02;;;24.52;;
23614;SDS011;11985;49.404;7.734;2022-08-18T12:21:38;26.75;;;23.05;;
23614;SDS011;11985;49.404;7.734;2022-08-18T12:23:41;26.50;;;23.70;;
23614;SDS011;11985;49.404;7.734;2022-08-18T12:25:42;26.42;;;23.17;;
23614;SDS011;11985;49.404;7.734;2022-08-18T12:27:44;31.27;;;22.98;;
23614;SDS011;11985;49.404;7.734;2022-08-18T12:31:47;25.75;;;21.23;;
23614;SDS011;11985;49.404;7.734;2022-08-18T12:33:52;26.10;;;22.95;;
23614;SDS011;11985;49.404;7.734;2022-08-18T12:35:53;27.08;;;22.63;;
23614;SDS011;11985;49.404;7.734;2022-08-18T12:37:55;27.25;;;21.92;;
23614;SDS011;11985;49.404;7.734;2022-08-18T12:44:01;28.60;;;23.45;;
23614;SDS011;11985;49.404;7.734;2022-08-18T12:46:03;24.38;;;20.83;;
23614;SDS011;11985;49.404;7.734;2022-08-18T12:48:05;24.60;;;21.95;;
23614;SDS011;11985;49.404;7.734;2022-08-18T12:50:08;26.65;;;23.05;;
23614;SDS011;11985;49.404;7.734;2022-08-18T12:52:11;24.58;;;21.33;;
23614;SDS011;11985;49.404;7.734;2022-08-18T12:54:13;26.30;;;22.20;;
23614;SDS011;11985;49.404;7.734;2022-08-18T12:56:16;25.05;;;19.67;;
23614;SDS011;11985;49.404;7.734;2022-08-18T12:58:21;24.75;;;21.60;;
23614;SDS011;11985;49.404;7.734;2022-08-18T13:02:24;25.70;;;18.10;;
23614;SDS011;11985;49.404;7.734;2022-08-18T13:04:26;20.52;;;18.05;;
23614;SDS011;11985;49.404;7.734;2022-08-18T13:06:30;21.42;;;17.58;;
23614;SDS011;11985;49.404;7.734;2022-08-18T13:08:34;22.77;;;18.20;;
23614;SDS011;11985;49.404;7.734;2022-08-18T13:10:37;21.88;;;17.48;;
23614;SDS011;11985;49.404;7.734;2022-08-18T13:14:40;19.05;;;16.45;;
23614;SDS011;11985;49.404;7.734;2022-08-18T13:18:45;21.58;;;16.05;;
23614;SDS011;11985;49.404;7.734;2022-08-18T13:20:47;20.17;;;16.05;;
23614;SDS011;11985;49.404;7.734;2022-08-18T13:22:50;20.05;;;16.20;;
23614;SDS011;11985;49.404;7.734;2022-08-18T13:24:52;18.45;;;15.32;;
23614;SDS011;11985;49.404;7.734;2022-08-18T13:26:54;17.90;;;15.82;;
23614;SDS011;11985;49.404;7.734;2022-08-18T13:30:58;23.42;;;15.68;;
23614;SDS011;11985;49.404;7.734;2022-08-18T13:33:01;18.35;;;15.30;;
23614;SDS011;11985;49.404;7.734;2022-08-18T13:35:03;17.30;;;15.15;;
23614;SDS011;11985;49.404;7.734;2022-08-18T13:37:05;19.35;;;14.27;;
23614;SDS011;11985;49.404;7.734;2022-08-18T13:41:10;17.60;;;15.52;;
23614;SDS011;11985;49.404;7.734;2022-08-18T13:43:12;19.90;;;16.15;;
23614;SDS011;11985;49.404;7.734;2022-08-18T13:45:16;18.23;;;16.17;;
23614;SDS011;11985;49.404;7.734;2022-08-18T13:47:20;16.65;;;14.98;;
23614;SDS011;11985;49.404;7.734;2022-08-18T13:49:22;18.48;;;15.70;;
23614;SDS011;11985;49.404;7.734;2022-08-18T13:51:24;21.38;;;15.40;;
23614;SDS011;11985;49.404;7.734;2022-08-18T13:55:29;23.23;;;16.27;;
23614;SDS011;11985;49.404;7.734;2022-08-18T13:57:31;21.58;;;16.75;;